createdAt,value
2022-10-11T00:00:49.175Z,13.78
2022-10-11T00:03:17.373Z,14.32
2022-10-11T00:05:45.215Z,13.57
2022-10-11T00:08:13.792Z,13.70
2022-10-11T00:10:42.594Z,13.41
2022-10-11T00:13:21.683Z,14.09
2022-10-11T00:16:07.929Z,13.52
2022-10-11T00:18:47.296Z,13.37
2022-10-11T00:21:27.434Z,13.36
2022-10-11T00:24:07.713Z,13.00
2022-10-11T00:26:48.173Z,13.03
2022-10-11T00:29:26.783Z,13.73
2022-10-11T00:32:07.292Z,13.11
2022-10-11T00:34:47.112Z,13.93
2022-10-11T00:37:27.723Z,13.44
2022-10-11T00:40:13.802Z,13.23
2022-10-11T00:42:54.274Z,12.90
2022-10-11T00:45:34.480Z,13.15
2022-10-11T00:48:22.452Z,13.45
2022-10-11T00:51:03.996Z,12.66
2022-10-11T00:53:43.746Z,12.39
2022-10-11T00:56:27.884Z,13.08
2022-10-11T00:59:12.933Z,12.91
2022-10-11T01:01:53.605Z,12.46
2022-10-11T01:04:32.031Z,12.36
2022-10-11T01:07:12.269Z,11.87
2022-10-11T01:09:52.863Z,12.64
2022-10-11T01:12:33.434Z,12.64
2022-10-11T01:15:42.455Z,12.18
2022-10-11T01:18:27.973Z,12.05
2022-10-11T01:21:28.997Z,12.58
2022-10-11T01:24:43.002Z,12.16
2022-10-11T01:27:46.121Z,12.36
2022-10-11T01:30:32.644Z,12.33
2022-10-11T01:33:21.982Z,12.10
2022-10-11T01:36:10.918Z,11.64
2022-10-11T01:38:54.353Z,11.88
2022-10-11T01:41:38.913Z,11.99
2022-10-11T01:44:20.609Z,11.53
2022-10-11T01:46:59.714Z,11.61
2022-10-11T01:49:40.203Z,12.02
2022-10-11T01:52:20.155Z,11.98
2022-10-11T01:55:23.502Z,11.60
2022-10-11T01:58:11.985Z,11.86
2022-10-11T02:01:01.044Z,11.35
2022-10-11T02:03:45.162Z,11.08
2022-10-11T02:06:40.413Z,11.49
2022-10-11T02:09:27.212Z,11.19
2022-10-11T02:12:10.417Z,11.72
2022-10-11T02:14:51.643Z,11.37
2022-10-11T02:17:34.883Z,11.62
2022-10-11T02:20:20.283Z,11.12
2022-10-11T02:23:11.413Z,11.71
2022-10-11T02:25:51.044Z,11.38
2022-10-11T02:28:36.753Z,11.79
2022-10-11T02:31:18.005Z,11.40
2022-10-11T02:34:01.452Z,11.16
2022-10-11T02:37:14.753Z,11.11
2022-10-11T02:40:04.255Z,11.18
2022-10-11T02:42:48.733Z,10.52
2022-10-11T02:45:36.216Z,11.76
2022-10-11T02:48:14.343Z,11.43
2022-10-11T02:50:54.263Z,10.65
2022-10-11T02:53:34.443Z,11.45
2022-10-11T02:56:14.974Z,11.13
2022-10-11T02:58:55.112Z,11.20
2022-10-11T03:01:35.271Z,11.29
2022-10-11T03:04:15.430Z,11.41
2022-10-11T03:06:55.994Z,10.98
2022-10-11T03:09:36.223Z,11.73
2022-10-11T03:12:16.808Z,10.62
2022-10-11T03:14:58.483Z,11.39
2022-10-11T03:17:38.605Z,11.54
2022-10-11T03:20:19.335Z,11.19
2022-10-11T03:22:59.575Z,11.41
2022-10-11T03:25:39.672Z,11.23
2022-10-11T03:28:20.024Z,10.84
2022-10-11T03:30:58.354Z,10.67
2022-10-11T03:33:38.694Z,11.36
2022-10-11T03:36:19.174Z,10.75
2022-10-11T03:39:00.162Z,11.31
2022-10-11T03:41:39.215Z,10.95
2022-10-11T03:44:19.884Z,11.13
2022-10-11T03:47:00.468Z,10.78
2022-10-11T03:49:43.564Z,10.13
2022-10-11T03:52:22.361Z,10.14
2022-10-11T03:55:02.494Z,10.45
2022-10-11T03:57:43.075Z,11.17
2022-10-11T04:00:21.372Z,10.80
2022-10-11T04:03:03.914Z,11.31
2022-10-11T04:05:43.418Z,11.45
2022-10-11T04:08:40.984Z,11.10
2022-10-11T04:11:21.673Z,11.49
2022-10-11T04:14:02.482Z,11.53
2022-10-11T04:16:42.143Z,11.25
2022-10-11T04:19:22.053Z,11.33
2022-10-11T04:22:00.417Z,11.00
2022-10-11T04:24:39.088Z,11.11
2022-10-11T04:27:19.214Z,11.23
2022-10-11T04:29:59.446Z,11.94
2022-10-11T04:32:39.555Z,11.94
2022-10-11T04:35:20.053Z,11.56
2022-10-11T04:38:00.203Z,11.98
2022-10-11T04:40:40.335Z,12.03
2022-10-11T04:43:20.794Z,11.65
2022-10-11T04:45:59.054Z,11.42
2022-10-11T04:48:39.753Z,11.73
2022-10-11T04:51:21.383Z,12.04
2022-10-11T04:54:01.751Z,12.03
2022-10-11T04:56:41.752Z,12.04
2022-10-11T04:59:21.832Z,11.55
2022-10-11T05:02:02.182Z,11.46
2022-10-11T05:04:42.974Z,11.17
2022-10-11T05:07:22.285Z,12.11
2022-10-11T05:10:03.071Z,11.77
2022-10-11T05:12:43.204Z,12.17
2022-10-11T05:15:21.752Z,11.98
2022-10-11T05:18:01.853Z,12.13
2022-10-11T05:20:41.774Z,11.81
2022-10-11T05:23:21.955Z,11.58
2022-10-11T05:26:03.342Z,12.50
2022-10-11T05:28:43.934Z,12.17
2022-10-11T05:31:24.710Z,11.88
2022-10-11T05:34:04.925Z,11.71
2022-10-11T05:36:44.706Z,12.55
2022-10-11T05:39:25.563Z,12.86
2022-10-11T05:42:09.644Z,12.99
2022-10-11T05:44:50.391Z,12.46
2022-10-11T05:47:30.593Z,13.13
2022-10-11T05:50:11.208Z,12.77
2022-10-11T05:52:51.307Z,12.01
2022-10-11T05:55:36.196Z,13.28
2022-10-11T05:58:18.829Z,12.97
2022-10-11T06:00:58.594Z,13.05
2022-10-11T06:03:37.167Z,13.15
2022-10-11T06:06:17.533Z,13.65
2022-10-11T06:08:57.933Z,14.29
2022-10-11T06:11:38.514Z,13.95
2022-10-11T06:14:18.572Z,13.70
2022-10-11T06:16:58.885Z,13.34
2022-10-11T06:19:38.984Z,14.10
2022-10-11T06:22:19.193Z,13.97
2022-10-11T06:24:59.696Z,14.03
2022-10-11T06:27:40.113Z,13.86
2022-10-11T06:30:19.901Z,13.99
2022-10-11T06:33:04.615Z,13.64
2022-10-11T06:35:45.442Z,14.51
2022-10-11T06:38:26.404Z,15.22
2022-10-11T06:41:20.826Z,14.89
2022-10-11T06:44:00.759Z,14.88
2022-10-11T06:46:41.365Z,14.53
2022-10-11T06:49:23.553Z,15.37
2022-10-11T06:52:05.320Z,15.34
2022-10-11T06:54:45.848Z,15.07
2022-10-11T06:57:26.200Z,14.94
2022-10-11T07:00:12.876Z,15.42
2022-10-11T07:02:53.883Z,15.73
2022-10-11T07:05:34.965Z,15.38
2022-10-11T07:08:15.688Z,16.27
2022-10-11T07:11:04.386Z,15.91
2022-10-11T07:13:52.026Z,16.14
2022-10-11T07:16:31.412Z,17.00
2022-10-11T07:19:12.291Z,16.68
2022-10-11T07:21:53.501Z,17.17
2022-10-11T07:24:37.823Z,16.84
2022-10-11T07:27:19.043Z,17.06
2022-10-11T07:29:59.111Z,16.63
2022-10-11T07:32:39.905Z,16.87
2022-10-11T07:35:19.393Z,17.63
2022-10-11T07:37:59.550Z,17.80
2022-10-11T07:40:45.331Z,17.55
2022-10-11T07:43:24.694Z,18.33
2022-10-11T07:46:06.389Z,18.73
2022-10-11T07:48:51.185Z,19.37
2022-10-11T07:51:33.293Z,19.22
2022-10-11T07:54:12.834Z,20.09
2022-10-11T07:56:54.187Z,20.53
2022-10-11T07:59:33.697Z,20.16
2022-10-11T08:02:13.376Z,19.31
2022-10-11T08:04:54.634Z,20.36
2022-10-11T08:07:34.540Z,20.04
2022-10-11T08:10:14.961Z,21.61
2022-10-11T08:12:57.676Z,21.19
2022-10-11T08:15:40.588Z,20.90
2022-10-11T08:18:22.097Z,22.26
2022-10-11T08:21:09.317Z,21.86
2022-10-11T08:23:48.983Z,23.28
2022-10-11T08:26:28.835Z,22.94
2022-10-11T08:29:09.289Z,22.69
2022-10-11T08:31:49.707Z,23.61
2022-10-11T08:34:29.749Z,23.50
2022-10-11T08:37:09.992Z,23.30
2022-10-11T08:39:50.429Z,23.81
2022-10-11T08:42:47.854Z,23.43
2022-10-11T08:45:43.124Z,22.98
2022-10-11T08:48:34.865Z,23.76
2022-10-11T08:51:46.634Z,23.60
2022-10-11T08:54:36.984Z,25.02
2022-10-11T08:57:20.976Z,25.13
2022-10-11T09:00:04.967Z,25.44
2022-10-11T09:03:29.934Z,25.89
2022-10-11T09:06:31.635Z,26.45
2022-10-11T09:09:23.736Z,26.80
2022-10-11T09:12:16.068Z,26.97
2022-10-11T09:15:25.970Z,26.79
2022-10-11T09:18:09.985Z,26.83
2022-10-11T09:21:20.353Z,27.33
2022-10-11T09:24:06.706Z,27.16
2022-10-11T09:26:44.203Z,27.16
2022-10-11T09:29:50.918Z,27.06
2022-10-11T09:32:21.524Z,27.29
2022-10-11T09:35:01.206Z,26.98
2022-10-11T09:37:38.492Z,27.35
2022-10-11T09:40:23.047Z,27.14
2022-10-11T09:42:51.310Z,27.29
2022-10-11T09:45:21.746Z,27.52
2022-10-11T09:47:52.332Z,28.00
2022-10-11T09:50:23.801Z,28.08
2022-10-11T09:53:00.592Z,28.20
2022-10-11T09:55:43.552Z,28.93
2022-10-11T09:58:26.615Z,28.60
2022-10-11T10:01:22.391Z,28.65
2022-10-11T10:04:06.654Z,28.60
2022-10-11T10:06:34.974Z,29.23
2022-10-11T10:09:27.495Z,29.21
2022-10-11T10:11:56.186Z,29.76
2022-10-11T10:14:30.366Z,30.09
2022-10-11T10:17:01.236Z,29.93
2022-10-11T10:19:29.916Z,29.05
2022-10-11T10:21:58.083Z,27.66
2022-10-11T10:24:38.616Z,27.16
2022-10-11T10:27:23.085Z,26.29
2022-10-11T10:30:09.839Z,25.66
2022-10-11T10:32:48.654Z,25.59
2022-10-11T10:35:25.846Z,25.73
2022-10-11T10:37:59.846Z,24.94
2022-10-11T10:40:58.441Z,24.92
2022-10-11T10:43:35.573Z,24.57
2022-10-11T10:46:22.339Z,24.85
2022-10-11T10:52:24.982Z,24.82
2022-10-11T10:55:16.974Z,25.23
2022-10-11T10:57:53.872Z,25.13
2022-10-11T11:00:23.343Z,25.19
2022-10-11T11:03:01.616Z,25.45
2022-10-11T11:05:48.663Z,24.42
2022-10-11T11:08:43.401Z,24.30
2022-10-11T11:11:33.733Z,24.75
2022-10-11T11:14:20.106Z,24.96
2022-10-11T11:17:09.235Z,25.73
2022-10-11T11:19:37.333Z,26.18
2022-10-11T11:22:39.301Z,26.89
2022-10-11T11:25:45.247Z,26.74
2022-10-11T11:28:26.910Z,27.38
2022-10-11T11:31:13.752Z,27.07
2022-10-11T11:34:12.553Z,27.15
2022-10-11T11:36:54.853Z,26.69
2022-10-11T11:39:25.663Z,25.64
2022-10-11T11:42:13.767Z,24.62
2022-10-11T11:44:45.343Z,24.27
2022-10-11T11:47:26.665Z,24.72
2022-10-11T11:50:23.313Z,25.07
2022-10-11T11:53:05.748Z,25.52
2022-10-11T11:55:52.671Z,26.47
2022-10-11T11:58:39.183Z,26.25
2022-10-11T12:01:30.294Z,25.36
2022-10-11T12:04:05.749Z,25.78
2022-10-11T12:06:37.932Z,25.61
2022-10-11T12:09:21.774Z,25.13
2022-10-11T12:12:01.052Z,24.27
2022-10-11T12:14:32.282Z,23.74
2022-10-11T12:17:15.915Z,24.01
2022-10-11T12:20:01.953Z,23.70
2022-10-11T12:22:29.663Z,23.79
2022-10-11T12:25:14.954Z,23.17
2022-10-11T12:27:50.905Z,22.87
2022-10-11T12:30:44.356Z,23.40
2022-10-11T12:33:21.575Z,22.43
2022-10-11T12:35:55.738Z,22.13
2022-10-11T12:38:30.080Z,22.38
2022-10-11T12:41:18.709Z,22.81
2022-10-11T12:43:49.255Z,22.97
2022-10-11T12:46:29.376Z,23.41
2022-10-11T12:49:16.204Z,23.55
2022-10-11T12:52:17.937Z,24.28
2022-10-11T12:55:07.184Z,24.25
2022-10-11T12:58:12.542Z,24.03
2022-10-11T13:00:40.286Z,24.01
2022-10-11T13:03:35.483Z,23.75
2022-10-11T13:06:16.651Z,23.64
2022-10-11T13:08:49.529Z,23.93
2022-10-11T13:11:46.133Z,23.00
2022-10-11T13:14:18.273Z,22.80
2022-10-11T13:16:57.754Z,22.97
2022-10-11T13:19:27.121Z,22.14
2022-10-11T13:21:58.477Z,22.18
2022-10-11T13:24:28.721Z,21.66
2022-10-11T13:26:57.334Z,21.47
2022-10-11T13:29:41.467Z,21.33
2022-10-11T13:32:20.333Z,21.65
2022-10-11T13:34:54.001Z,21.72
2022-10-11T13:37:25.044Z,21.68
2022-10-11T13:39:54.793Z,21.68
2022-10-11T13:42:31.888Z,21.78
2022-10-11T13:45:01.092Z,22.14
2022-10-11T13:47:31.035Z,22.20
2022-10-11T13:50:23.624Z,22.57
2022-10-11T13:52:56.214Z,22.71
2022-10-11T13:55:34.316Z,22.36
2022-10-11T13:58:09.068Z,22.25
2022-10-11T14:00:38.788Z,22.12
2022-10-11T14:03:13.401Z,22.25
2022-10-11T14:05:43.213Z,22.25
2022-10-11T14:08:36.430Z,22.24
2022-10-11T14:11:06.813Z,22.38
2022-10-11T14:13:39.883Z,22.20
2022-10-11T14:16:08.860Z,22.06
2022-10-11T14:18:50.626Z,22.13
2022-10-11T14:21:37.076Z,21.71
2022-10-11T14:24:08.123Z,21.74
2022-10-11T14:26:42.174Z,21.70
2022-10-11T14:29:19.325Z,21.69
2022-10-11T14:31:47.316Z,21.46
2022-10-11T14:34:22.460Z,21.36
2022-10-11T14:36:51.203Z,21.27
2022-10-11T14:39:24.273Z,21.05
2022-10-11T14:41:52.675Z,21.38
2022-10-11T14:44:22.163Z,21.57
2022-10-11T14:46:54.055Z,21.26
2022-10-11T14:49:25.833Z,21.72
2022-10-11T14:51:55.665Z,21.21
2022-10-11T14:54:25.340Z,20.97
2022-10-11T14:56:55.672Z,21.20
2022-10-11T14:59:26.393Z,20.33
2022-10-11T15:01:54.582Z,20.19
2022-10-11T15:04:25.123Z,20.60
2022-10-11T15:06:54.940Z,20.70
2022-10-11T15:09:29.215Z,21.04
2022-10-11T15:11:57.750Z,20.38
2022-10-11T15:14:26.183Z,20.07
2022-10-11T15:16:54.183Z,20.42
2022-10-11T15:19:25.135Z,20.26
2022-10-11T15:21:53.043Z,20.20
2022-10-11T15:24:21.055Z,19.40
2022-10-11T15:26:49.552Z,19.58
2022-10-11T15:29:18.237Z,19.67
2022-10-11T15:31:46.581Z,19.71
2022-10-11T15:34:14.731Z,19.81
2022-10-11T15:36:44.335Z,19.30
2022-10-11T15:39:27.646Z,19.89
2022-10-11T15:41:57.696Z,19.24
2022-10-11T15:44:25.975Z,19.61
2022-10-11T15:46:54.143Z,19.67
2022-10-11T15:49:22.381Z,19.31
2022-10-11T15:51:50.322Z,18.13
2022-10-11T15:54:18.442Z,18.69
2022-10-11T15:56:46.780Z,18.44
2022-10-11T15:59:14.603Z,18.11
2022-10-11T16:01:42.793Z,17.92
2022-10-11T16:04:11.035Z,17.35
2022-10-11T16:06:39.056Z,17.68
2022-10-11T16:09:07.255Z,17.06
2022-10-11T16:11:35.393Z,17.34
2022-10-11T16:14:03.320Z,17.04
2022-10-11T16:16:31.035Z,16.62
2022-10-11T16:18:59.173Z,16.60
2022-10-11T16:21:28.173Z,16.53
2022-10-11T16:23:56.096Z,16.49
2022-10-11T16:26:24.376Z,15.97
2022-10-11T16:28:53.079Z,16.10
2022-10-11T16:31:21.363Z,15.90
2022-10-11T16:33:50.399Z,16.06
2022-10-11T16:36:37.964Z,15.88
2022-10-11T16:39:11.649Z,15.89
2022-10-11T16:41:39.652Z,15.56
2022-10-11T16:44:08.204Z,15.57
2022-10-11T16:46:36.279Z,15.69
2022-10-11T16:49:04.943Z,15.43
2022-10-11T16:51:33.203Z,15.65
2022-10-11T16:54:01.173Z,15.28
2022-10-11T16:56:29.661Z,15.66
2022-10-11T16:58:57.992Z,15.51
2022-10-11T17:01:26.203Z,15.55
2022-10-11T17:03:54.343Z,14.84
2022-10-11T17:06:22.905Z,14.87
2022-10-11T17:08:50.710Z,14.64
2022-10-11T17:11:19.042Z,15.17
2022-10-11T17:13:47.863Z,15.04
2022-10-11T17:16:16.894Z,14.81
2022-10-11T17:18:44.643Z,14.95
2022-10-11T17:21:15.622Z,15.20
2022-10-11T17:23:43.785Z,15.63
2022-10-11T17:26:20.871Z,15.78
2022-10-11T17:28:49.366Z,15.72
2022-10-11T17:31:17.616Z,16.01
2022-10-11T17:33:45.696Z,15.59
2022-10-11T17:36:19.677Z,15.65
2022-10-11T17:38:49.304Z,15.96
2022-10-11T17:41:18.441Z,15.71
2022-10-11T17:43:46.534Z,16.19
2022-10-11T17:46:16.044Z,16.12
2022-10-11T17:48:45.667Z,16.14
2022-10-11T17:51:16.385Z,16.07
2022-10-11T17:53:46.832Z,15.90
2022-10-11T17:56:28.341Z,15.77
2022-10-11T17:58:59.125Z,15.80
2022-10-11T18:01:29.727Z,16.02
2022-10-11T18:04:00.195Z,15.65
2022-10-11T18:06:30.885Z,15.66
2022-10-11T18:09:04.194Z,15.42
2022-10-11T18:11:32.511Z,15.71
2022-10-11T18:14:01.172Z,16.11
2022-10-11T18:16:30.400Z,15.78
2022-10-11T18:18:59.370Z,16.22
2022-10-11T18:21:33.590Z,16.38
2022-10-11T18:24:06.095Z,16.36
2022-10-11T18:26:34.453Z,16.43
2022-10-11T18:29:05.545Z,16.29
2022-10-11T18:31:35.389Z,15.76
2022-10-11T18:34:05.086Z,15.70
2022-10-11T18:36:33.047Z,15.39
2022-10-11T18:39:03.576Z,16.32
2022-10-11T18:41:32.945Z,16.30
2022-10-11T18:44:06.120Z,15.39
2022-10-11T18:46:36.419Z,14.98
2022-10-11T18:49:04.613Z,16.06
2022-10-11T18:51:40.922Z,16.01
2022-10-11T18:54:12.910Z,15.80
2022-10-11T18:56:43.475Z,15.84
2022-10-11T18:59:11.755Z,15.19
2022-10-11T19:01:41.757Z,15.69
2022-10-11T19:04:11.358Z,15.25
2022-10-11T19:06:43.229Z,14.71
2022-10-11T19:09:18.052Z,15.17
2022-10-11T19:11:46.538Z,15.42
2022-10-11T19:14:17.621Z,14.54
2022-10-11T19:16:49.773Z,14.58
2022-10-11T19:19:20.208Z,15.41
2022-10-11T19:21:48.974Z,15.34
2022-10-11T19:24:21.332Z,15.17
2022-10-11T19:26:49.551Z,14.54
2022-10-11T19:29:20.009Z,14.95
2022-10-11T19:31:55.544Z,15.05
2022-10-11T19:34:27.104Z,15.25
2022-10-11T19:36:56.684Z,14.90
2022-10-11T19:39:25.696Z,14.97
2022-10-11T19:41:54.963Z,14.97
2022-10-11T19:44:23.122Z,14.87
2022-10-11T19:46:52.902Z,14.11
2022-10-11T19:49:25.107Z,14.73
2022-10-11T19:51:53.823Z,14.87
2022-10-11T19:54:21.751Z,14.51
2022-10-11T19:56:49.701Z,14.34
2022-10-11T19:59:18.553Z,14.89
2022-10-11T20:01:51.931Z,14.90
2022-10-11T20:07:10.077Z,15.07
2022-10-11T20:09:38.185Z,15.19
2022-10-11T20:12:06.223Z,15.19
2022-10-11T20:14:33.934Z,14.69
2022-10-11T20:17:02.203Z,15.19
2022-10-11T20:19:31.281Z,14.57
2022-10-11T20:22:00.970Z,14.60
2022-10-11T20:24:33.402Z,14.10
2022-10-11T20:27:06.525Z,15.00
2022-10-11T20:29:34.843Z,15.16
2022-10-11T20:32:02.952Z,14.95
2022-10-11T20:34:30.774Z,15.07
2022-10-11T20:37:02.455Z,14.69
2022-10-11T20:39:41.722Z,14.74
2022-10-11T20:42:10.270Z,14.70
2022-10-11T20:44:38.053Z,14.54
2022-10-11T20:47:05.993Z,14.39
2022-10-11T20:49:34.240Z,14.35
2022-10-11T20:52:02.152Z,13.34
2022-10-11T20:54:30.846Z,12.97
2022-10-11T20:56:59.380Z,13.36
2022-10-11T20:59:27.394Z,13.71
2022-10-11T21:01:55.375Z,13.43
2022-10-11T21:04:23.575Z,13.97
2022-10-11T21:06:51.390Z,14.09
2022-10-11T21:09:19.409Z,13.75
2022-10-11T21:11:47.548Z,13.67
2022-10-11T21:14:15.460Z,13.04
2022-10-11T21:16:43.533Z,12.98
2022-10-11T21:19:14.707Z,13.04
2022-10-11T21:21:43.095Z,13.41
2022-10-11T21:24:11.162Z,13.67
2022-10-11T21:26:39.809Z,13.50
2022-10-11T21:29:08.625Z,13.44
2022-10-11T21:31:36.776Z,13.38
2022-10-11T21:34:07.034Z,13.11
2022-10-11T21:36:35.287Z,13.12
2022-10-11T21:39:03.944Z,12.80
2022-10-11T21:41:31.757Z,12.52
2022-10-11T21:44:01.272Z,11.84
2022-10-11T21:49:19.347Z,12.85
2022-10-11T21:51:47.534Z,12.76
2022-10-11T21:54:15.265Z,12.53
2022-10-11T21:56:43.423Z,12.71
2022-10-11T21:59:12.605Z,12.36
2022-10-11T22:01:41.933Z,12.76
2022-10-11T22:04:11.385Z,12.49
2022-10-11T22:06:39.502Z,12.38
2022-10-11T22:09:08.652Z,12.49
2022-10-11T22:11:37.036Z,12.44
2022-10-11T22:14:04.932Z,12.10
2022-10-11T22:16:33.880Z,12.25
2022-10-11T22:19:02.172Z,12.30
2022-10-11T22:21:30.774Z,12.31
2022-10-11T22:23:58.612Z,12.24
2022-10-11T22:26:30.254Z,12.17
2022-10-11T22:28:58.883Z,11.78
2022-10-11T22:31:27.052Z,12.02
2022-10-11T22:33:56.037Z,12.11
2022-10-11T22:36:24.548Z,11.71
2022-10-11T22:38:53.074Z,11.91
2022-10-11T22:41:21.183Z,11.68
2022-10-11T22:43:49.013Z,11.85
2022-10-11T22:46:17.359Z,12.03
2022-10-11T22:48:45.176Z,11.86
2022-10-11T22:51:12.953Z,11.50
2022-10-11T22:53:41.013Z,11.45
2022-10-11T22:56:09.475Z,11.38
2022-10-11T22:58:37.724Z,11.86
2022-10-11T23:01:14.814Z,12.03
2022-10-11T23:03:43.496Z,11.86
2022-10-11T23:06:11.713Z,11.63
2022-10-11T23:08:39.574Z,11.86
2022-10-11T23:11:08.264Z,11.78
2022-10-11T23:13:36.339Z,11.65
2022-10-11T23:16:09.070Z,11.56
2022-10-11T23:18:37.654Z,11.52
2022-10-11T23:21:06.463Z,11.19
2022-10-11T23:23:34.363Z,11.24
2022-10-11T23:26:05.111Z,11.77
2022-10-11T23:28:33.340Z,11.68
2022-10-11T23:31:01.296Z,11.57
2022-10-11T23:33:29.776Z,11.82
2022-10-11T23:35:57.503Z,11.73
2022-10-11T23:38:25.265Z,11.71
2022-10-11T23:40:53.404Z,11.72
2022-10-11T23:43:21.256Z,11.65
2022-10-11T23:45:48.973Z,11.46
2022-10-11T23:48:19.075Z,11.87
2022-10-11T23:50:47.074Z,11.88
2022-10-11T23:53:14.855Z,11.81
2022-10-11T23:55:42.944Z,11.94
2022-10-11T23:58:10.727Z,11.82
